createdAt,value
2018-10-12T00:00:34.835Z,16.91
2018-10-12T00:01:34.817Z,16.79
2018-10-12T00:02:34.853Z,16.76
2018-10-12T00:03:34.829Z,16.86
2018-10-12T00:04:34.853Z,16.88
2018-10-12T00:05:34.805Z,16.78
2018-10-12T00:06:34.767Z,16.71
2018-10-12T00:07:34.743Z,16.89
2018-10-12T00:08:34.753Z,16.89
2018-10-12T00:09:34.754Z,16.78
2018-10-12T00:10:34.713Z,16.83
2018-10-12T00:11:34.705Z,16.79
2018-10-12T00:12:34.690Z,16.73
2018-10-12T00:13:34.682Z,16.78
2018-10-12T00:14:34.698Z,16.75
2018-10-12T00:15:34.680Z,16.73
2018-10-12T00:16:34.642Z,16.66
2018-10-12T00:17:34.670Z,16.67
2018-10-12T00:18:34.623Z,16.66
2018-10-12T00:19:34.624Z,16.68
2018-10-12T00:20:34.642Z,16.66
2018-10-12T00:21:34.587Z,16.66
2018-10-12T00:22:34.570Z,16.70
2018-10-12T00:23:34.576Z,16.67
2018-10-12T00:24:34.620Z,16.66
2018-10-12T00:25:34.544Z,16.56
2018-10-12T00:26:34.527Z,16.58
2018-10-12T00:27:34.516Z,16.58
2018-10-12T00:28:34.540Z,16.64
2018-10-12T00:29:34.494Z,16.61
2018-10-12T00:30:34.517Z,16.66
2018-10-12T00:31:34.476Z,16.60
2018-10-12T00:32:34.474Z,16.64
2018-10-12T00:33:34.451Z,16.67
2018-10-12T00:34:34.437Z,16.64
2018-10-12T00:35:34.459Z,16.61
2018-10-12T00:36:34.414Z,16.60
2018-10-12T00:37:34.407Z,16.52
2018-10-12T00:38:34.406Z,16.64
2018-10-12T00:39:34.395Z,16.61
2018-10-12T00:40:34.405Z,16.66
2018-10-12T00:41:34.357Z,16.61
2018-10-12T00:42:34.353Z,16.63
2018-10-12T00:43:34.399Z,16.64
2018-10-12T00:44:34.339Z,16.50
2018-10-12T00:45:34.359Z,16.60
2018-10-12T00:46:34.311Z,16.56
2018-10-12T00:47:34.287Z,16.60
2018-10-12T00:48:34.279Z,16.56
2018-10-12T00:49:34.336Z,16.60
2018-10-12T00:50:34.268Z,16.58
2018-10-12T00:51:34.252Z,16.57
2018-10-12T00:52:34.256Z,16.50
2018-10-12T00:53:34.236Z,16.45
2018-10-12T00:54:34.207Z,16.48
2018-10-12T00:55:34.202Z,16.45
2018-10-12T00:56:34.252Z,16.49
2018-10-12T00:57:34.182Z,16.53
2018-10-12T00:58:34.170Z,16.52
2018-10-12T00:59:34.160Z,16.46
2018-10-12T01:00:34.171Z,16.46
2018-10-12T01:01:34.142Z,16.46
2018-10-12T01:02:34.161Z,16.52
2018-10-12T01:03:34.129Z,16.52
2018-10-12T01:04:34.104Z,16.46
2018-10-12T01:05:34.093Z,16.49
2018-10-12T01:06:34.127Z,16.48
2018-10-12T01:07:34.114Z,16.41
2018-10-12T01:08:34.123Z,16.42
2018-10-12T01:09:34.044Z,16.41
2018-10-12T01:10:34.043Z,16.35
2018-10-12T01:11:34.020Z,16.31
2018-10-12T01:12:34.022Z,16.28
2018-10-12T01:13:34.011Z,16.31
2018-10-12T01:14:34.049Z,16.42
2018-10-12T01:15:33.991Z,16.31
2018-10-12T01:16:33.973Z,16.38
2018-10-12T01:17:33.984Z,16.35
2018-10-12T01:18:33.980Z,16.39
2018-10-12T01:19:34.000Z,16.33
2018-10-12T01:20:33.960Z,16.21
2018-10-12T01:21:34.000Z,16.38
2018-10-12T01:22:33.903Z,16.23
2018-10-12T01:23:33.896Z,16.31
2018-10-12T01:24:33.886Z,16.27
2018-10-12T01:25:33.895Z,16.24
2018-10-12T01:26:33.893Z,16.24
2018-10-12T01:27:33.851Z,16.20
2018-10-12T01:28:33.840Z,16.17
2018-10-12T01:29:33.828Z,16.17
2018-10-12T01:30:33.811Z,16.25
2018-10-12T01:31:33.822Z,16.25
2018-10-12T01:32:33.792Z,16.14
2018-10-12T01:33:33.783Z,16.20
2018-10-12T01:34:33.770Z,16.24
2018-10-12T01:35:33.742Z,16.25
2018-10-12T01:36:33.797Z,16.27
2018-10-12T01:37:33.722Z,16.23
2018-10-12T01:38:33.716Z,16.24
2018-10-12T01:39:33.715Z,16.20
2018-10-12T01:40:33.706Z,16.15
2018-10-12T01:41:33.677Z,16.14
2018-10-12T01:42:33.809Z,16.12
2018-10-12T01:43:33.667Z,16.14
2018-10-12T01:44:33.656Z,16.01
2018-10-12T01:45:33.760Z,15.94
2018-10-12T01:46:33.627Z,15.86
2018-10-12T01:47:33.621Z,15.82
2018-10-12T01:48:33.718Z,15.92
2018-10-12T01:49:33.591Z,15.76
2018-10-12T01:50:33.579Z,15.90
2018-10-12T01:51:33.558Z,15.92
2018-10-12T01:52:33.563Z,15.92
2018-10-12T01:53:33.542Z,15.89
2018-10-12T01:54:33.571Z,15.84
2018-10-12T01:55:33.527Z,15.87
2018-10-12T01:56:33.535Z,15.86
2018-10-12T01:57:33.506Z,15.83
2018-10-12T01:58:33.488Z,15.75
2018-10-12T01:59:33.678Z,15.75
2018-10-12T02:00:33.460Z,15.76
2018-10-12T02:01:33.453Z,15.80
2018-10-12T02:02:33.432Z,15.89
2018-10-12T02:03:33.436Z,15.93
2018-10-12T02:04:33.469Z,15.80
2018-10-12T02:05:33.411Z,15.87
2018-10-12T02:06:33.394Z,15.84
2018-10-12T02:07:33.377Z,15.76
2018-10-12T02:08:33.374Z,15.80
2018-10-12T02:09:33.366Z,15.76
2018-10-12T02:10:33.352Z,15.82
2018-10-12T02:11:33.344Z,15.78
2018-10-12T02:12:33.312Z,15.72
2018-10-12T02:13:33.305Z,15.74
2018-10-12T02:14:33.362Z,15.74
2018-10-12T02:15:33.362Z,15.75
2018-10-12T02:16:33.270Z,15.74
2018-10-12T02:17:33.257Z,15.76
2018-10-12T02:18:33.258Z,15.83
2018-10-12T02:19:33.250Z,15.82
2018-10-12T02:20:33.313Z,15.78
2018-10-12T02:21:42.643Z,15.84
2018-10-12T02:22:33.206Z,15.76
2018-10-12T02:23:41.118Z,15.74
2018-10-12T02:24:33.175Z,15.82
2018-10-12T02:25:33.160Z,15.83
2018-10-12T02:26:33.197Z,15.76
2018-10-12T02:27:33.136Z,15.72
2018-10-12T02:28:33.122Z,15.93
2018-10-12T02:29:33.116Z,15.72
2018-10-12T02:31:17.251Z,15.69
2018-10-12T02:31:33.101Z,15.78
2018-10-12T02:32:33.093Z,15.65
2018-10-12T02:33:33.074Z,15.75
2018-10-12T02:34:33.071Z,15.68
2018-10-12T02:35:33.042Z,15.78
2018-10-12T02:36:33.046Z,15.72
2018-10-12T02:37:33.020Z,15.68
2018-10-12T02:38:32.999Z,15.71
2018-10-12T02:39:32.995Z,15.71
2018-10-12T02:40:32.994Z,15.72
2018-10-12T02:41:32.968Z,15.78
2018-10-12T02:42:32.963Z,15.72
2018-10-12T02:43:32.955Z,15.74
2018-10-12T02:44:32.928Z,15.60
2018-10-12T02:45:32.926Z,15.60
2018-10-12T02:46:32.923Z,15.62
2018-10-12T02:47:32.920Z,15.64
2018-10-12T02:48:32.887Z,15.69
2018-10-12T02:50:01.708Z,15.67
2018-10-12T02:50:32.863Z,15.64
2018-10-12T02:51:32.920Z,15.69
2018-10-12T02:52:32.844Z,15.65
2018-10-12T02:53:32.836Z,15.71
2018-10-12T02:54:32.829Z,15.64
2018-10-12T02:55:32.820Z,15.60
2018-10-12T02:56:32.802Z,15.62
2018-10-12T02:57:32.790Z,15.74
2018-10-12T02:58:32.769Z,15.65
2018-10-12T02:59:32.773Z,15.62
2018-10-12T03:00:39.843Z,15.65
2018-10-12T03:01:32.745Z,15.62
2018-10-12T03:02:32.762Z,15.64
2018-10-12T03:03:32.715Z,15.71
2018-10-12T03:04:32.699Z,15.64
2018-10-12T03:05:32.684Z,15.67
2018-10-12T03:06:32.666Z,15.64
2018-10-12T03:07:32.683Z,15.65
2018-10-12T03:08:32.661Z,15.62
2018-10-12T03:09:32.635Z,15.60
2018-10-12T03:10:32.620Z,15.71
2018-10-12T03:11:32.621Z,15.68
2018-10-12T03:12:32.638Z,15.75
2018-10-12T03:13:32.591Z,15.68
2018-10-12T03:14:32.575Z,15.67
2018-10-12T03:15:32.562Z,15.65
2018-10-12T03:16:32.602Z,15.71
2018-10-12T03:17:32.577Z,15.67
2018-10-12T03:18:32.542Z,15.64
2018-10-12T03:19:32.520Z,15.69
2018-10-12T03:20:32.506Z,15.60
2018-10-12T03:21:32.501Z,15.69
2018-10-12T03:22:32.493Z,15.62
2018-10-12T03:23:32.488Z,15.71
2018-10-12T03:24:32.470Z,15.68
2018-10-12T03:25:32.459Z,15.69
2018-10-12T03:26:32.446Z,15.65
2018-10-12T03:27:32.453Z,15.71
2018-10-12T03:28:32.414Z,15.75
2018-10-12T03:29:32.429Z,15.68
2018-10-12T03:30:32.400Z,15.64
2018-10-12T03:31:32.407Z,15.80
2018-10-12T03:32:32.402Z,15.67
2018-10-12T03:33:32.359Z,15.69
2018-10-12T03:34:32.351Z,15.67
2018-10-12T03:35:32.328Z,15.64
2018-10-12T03:36:32.322Z,15.69
2018-10-12T03:37:32.312Z,15.74
2018-10-12T03:38:32.304Z,15.67
2018-10-12T03:39:32.342Z,15.65
2018-10-12T03:40:32.266Z,15.65
2018-10-12T03:41:32.287Z,15.71
2018-10-12T03:42:32.247Z,15.64
2018-10-12T03:43:32.242Z,15.72
2018-10-12T03:44:32.226Z,15.67
2018-10-12T03:45:32.240Z,15.64
2018-10-12T03:46:32.208Z,15.64
2018-10-12T03:47:32.193Z,15.53
2018-10-12T03:48:32.177Z,15.54
2018-10-12T03:49:32.168Z,15.56
2018-10-12T03:50:32.184Z,15.54
2018-10-12T03:51:32.135Z,15.56
2018-10-12T03:52:32.132Z,15.59
2018-10-12T03:53:32.119Z,15.51
2018-10-12T03:54:32.111Z,15.59
2018-10-12T03:55:32.129Z,15.57
2018-10-12T03:56:32.082Z,15.54
2018-10-12T03:57:32.060Z,15.46
2018-10-12T03:58:32.066Z,15.50
2018-10-12T03:59:32.042Z,15.43
2018-10-12T04:00:32.026Z,15.44
2018-10-12T04:01:32.051Z,15.56
2018-10-12T04:02:32.120Z,15.46
2018-10-12T04:03:31.994Z,15.49
2018-10-12T04:04:31.985Z,15.50
2018-10-12T04:05:31.979Z,15.44
2018-10-12T04:06:31.972Z,15.54
2018-10-12T04:07:31.947Z,15.51
2018-10-12T04:08:31.964Z,15.51
2018-10-12T04:09:31.921Z,15.38
2018-10-12T04:10:31.905Z,15.51
2018-10-12T04:11:31.919Z,15.36
2018-10-12T04:12:31.979Z,15.39
2018-10-12T04:13:31.877Z,15.46
2018-10-12T04:14:31.870Z,15.36
2018-10-12T04:15:31.859Z,15.39
2018-10-12T04:16:31.836Z,15.36
2018-10-12T04:17:31.887Z,15.32
2018-10-12T04:18:31.806Z,15.28
2018-10-12T04:19:31.799Z,15.31
2018-10-12T04:20:31.789Z,15.31
2018-10-12T04:21:31.784Z,15.31
2018-10-12T04:22:31.772Z,15.36
2018-10-12T04:23:31.785Z,15.38
2018-10-12T04:24:31.740Z,15.35
2018-10-12T04:25:31.740Z,15.38
2018-10-12T04:26:31.718Z,15.39
2018-10-12T04:27:31.723Z,15.41
2018-10-12T04:28:31.747Z,15.38
2018-10-12T04:29:31.689Z,15.38
2018-10-12T04:30:31.666Z,15.27
2018-10-12T04:31:31.651Z,15.21
2018-10-12T04:32:31.664Z,15.28
2018-10-12T04:33:31.658Z,15.21
2018-10-12T04:34:31.615Z,15.27
2018-10-12T04:35:31.644Z,15.29
2018-10-12T04:36:31.598Z,15.36
2018-10-12T04:37:31.581Z,15.28
2018-10-12T04:38:31.621Z,15.36
2018-10-12T04:39:31.568Z,15.35
2018-10-12T04:40:31.544Z,15.36
2018-10-12T04:41:31.543Z,15.34
2018-10-12T04:42:31.532Z,15.34
2018-10-12T04:43:31.547Z,15.36
2018-10-12T04:44:31.508Z,15.38
2018-10-12T04:45:31.477Z,15.35
2018-10-12T04:46:31.477Z,15.41
2018-10-12T04:47:31.470Z,15.39
2018-10-12T04:48:31.493Z,15.39
2018-10-12T04:49:31.443Z,15.38
2018-10-12T04:50:31.471Z,15.32
2018-10-12T04:51:31.418Z,15.29
2018-10-12T04:52:31.404Z,15.31
2018-10-12T04:53:31.494Z,15.31
2018-10-12T04:54:31.377Z,15.21
2018-10-12T04:55:31.363Z,15.17
2018-10-12T04:56:31.353Z,15.20
2018-10-12T04:57:31.339Z,15.21
2018-10-12T04:58:31.326Z,15.27
2018-10-12T04:59:31.323Z,15.25
2018-10-12T05:00:31.322Z,15.23
2018-10-12T05:01:31.297Z,15.17
2018-10-12T05:02:31.282Z,15.17
2018-10-12T05:03:31.276Z,15.19
2018-10-12T05:04:31.289Z,15.17
2018-10-12T05:05:31.304Z,15.19
2018-10-12T05:06:31.240Z,15.16
2018-10-12T05:07:31.256Z,15.17
2018-10-12T05:08:31.213Z,15.10
2018-10-12T05:09:31.207Z,15.19
2018-10-12T05:10:31.183Z,15.21
2018-10-12T05:11:31.180Z,15.19
2018-10-12T05:12:31.171Z,15.20
2018-10-12T05:13:31.154Z,15.16
2018-10-12T05:14:31.139Z,15.21
2018-10-12T05:15:31.129Z,15.21
2018-10-12T05:16:31.113Z,15.17
2018-10-12T05:17:31.096Z,15.19
2018-10-12T05:18:31.080Z,15.21
2018-10-12T05:19:31.075Z,15.19
2018-10-12T05:20:31.069Z,15.25
2018-10-12T05:21:31.093Z,15.23
2018-10-12T05:22:31.096Z,15.23
2018-10-12T05:23:31.017Z,15.27
2018-10-12T05:24:31.009Z,15.19
2018-10-12T05:25:31.007Z,15.20
2018-10-12T05:26:30.983Z,15.17
2018-10-12T05:27:30.980Z,15.19
2018-10-12T05:28:31.021Z,15.19
2018-10-12T05:29:30.955Z,15.13
2018-10-12T05:30:30.933Z,15.17
2018-10-12T05:31:30.922Z,14.98
2018-10-12T05:32:30.912Z,15.02
2018-10-12T05:33:30.907Z,14.98
2018-10-12T05:34:30.899Z,15.02
2018-10-12T05:35:30.888Z,15.02
2018-10-12T05:36:30.873Z,14.94
2018-10-12T05:37:30.920Z,14.98
2018-10-12T05:38:30.839Z,14.96
2018-10-12T05:39:30.830Z,14.94
2018-10-12T05:40:30.821Z,14.83
2018-10-12T05:41:30.816Z,14.86
2018-10-12T05:42:30.792Z,14.83
2018-10-12T05:43:30.971Z,14.84
2018-10-12T05:44:30.775Z,14.84
2018-10-12T05:45:30.765Z,14.88
2018-10-12T05:46:30.750Z,14.88
2018-10-12T05:47:30.739Z,14.83
2018-10-12T05:48:30.762Z,14.96
2018-10-12T05:49:30.706Z,14.91
2018-10-12T05:50:30.699Z,14.96
2018-10-12T05:51:30.685Z,14.95
2018-10-12T05:52:30.681Z,14.99
2018-10-12T05:53:30.691Z,15.01
2018-10-12T05:54:30.649Z,15.02
2018-10-12T05:55:30.635Z,15.01
2018-10-12T05:56:30.614Z,15.09
2018-10-12T05:57:30.605Z,14.98
2018-10-12T05:58:30.626Z,15.06
2018-10-12T05:59:30.579Z,15.02
2018-10-12T06:00:30.595Z,15.07
2018-10-12T06:01:30.592Z,15.09
2018-10-12T06:02:30.551Z,14.98
2018-10-12T06:03:30.542Z,15.01
2018-10-12T06:04:30.520Z,15.13
2018-10-12T06:05:30.535Z,15.13
2018-10-12T06:06:30.493Z,15.03
2018-10-12T06:07:30.489Z,15.09
2018-10-12T06:08:30.486Z,15.16
2018-10-12T06:09:30.507Z,15.13
2018-10-12T06:10:30.484Z,15.14
2018-10-12T06:11:30.481Z,14.98
2018-10-12T06:12:30.431Z,15.14
2018-10-12T06:13:30.404Z,15.10
2018-10-12T06:14:30.433Z,15.11
2018-10-12T06:15:30.523Z,15.13
2018-10-12T06:16:30.374Z,15.16
2018-10-12T06:17:30.355Z,15.13
2018-10-12T06:18:30.359Z,15.11
2018-10-12T06:19:30.341Z,15.19
2018-10-12T06:20:30.388Z,15.19
2018-10-12T06:21:30.366Z,15.25
2018-10-12T06:22:30.306Z,15.19
2018-10-12T06:23:30.287Z,15.32
2018-10-12T06:24:30.282Z,15.25
2018-10-12T06:25:30.271Z,15.34
2018-10-12T06:26:30.274Z,15.31
2018-10-12T06:27:30.245Z,15.34
2018-10-12T06:28:30.228Z,15.29
2018-10-12T06:29:30.214Z,15.28
2018-10-12T06:30:30.239Z,15.29
2018-10-12T06:31:30.183Z,15.32
2018-10-12T06:32:30.216Z,15.34
2018-10-12T06:33:30.172Z,15.31
2018-10-12T06:34:30.156Z,15.31
2018-10-12T06:35:30.172Z,15.21
2018-10-12T06:36:30.123Z,15.35
2018-10-12T06:37:30.112Z,15.31
2018-10-12T06:38:30.096Z,15.32
2018-10-12T06:39:30.091Z,15.41
2018-10-12T06:40:30.115Z,15.27
2018-10-12T06:41:30.118Z,15.28
2018-10-12T06:42:30.095Z,15.31
2018-10-12T06:43:30.058Z,15.35
2018-10-12T06:44:30.037Z,15.31
2018-10-12T06:45:30.019Z,15.35
2018-10-12T06:46:30.010Z,15.25
2018-10-12T06:47:30.028Z,15.29
2018-10-12T06:48:30.000Z,15.31
2018-10-12T06:49:29.979Z,15.31
2018-10-12T06:50:29.967Z,15.29
2018-10-12T06:51:29.944Z,15.28
2018-10-12T06:52:29.935Z,15.21
2018-10-12T06:53:29.999Z,15.34
2018-10-12T06:54:29.917Z,15.28
2018-10-12T06:55:29.903Z,15.36
2018-10-12T06:56:29.899Z,15.39
2018-10-12T06:57:29.869Z,15.36
2018-10-12T06:58:29.864Z,15.51
2018-10-12T06:59:29.902Z,15.43
2018-10-12T07:00:29.845Z,15.41
2018-10-12T07:01:29.833Z,15.51
2018-10-12T07:02:29.807Z,15.43
2018-10-12T07:03:29.798Z,15.36
2018-10-12T07:04:29.788Z,15.35
2018-10-12T07:05:29.822Z,15.31
2018-10-12T07:06:29.772Z,15.36
2018-10-12T07:07:29.770Z,15.31
2018-10-12T07:08:29.757Z,15.32
2018-10-12T07:09:29.731Z,15.27
2018-10-12T07:10:29.758Z,15.29
2018-10-12T07:11:29.711Z,15.19
2018-10-12T07:12:29.704Z,15.28
2018-10-12T07:13:29.682Z,15.32
2018-10-12T07:14:29.668Z,15.35
2018-10-12T07:15:29.687Z,15.36
2018-10-12T07:16:29.643Z,15.49
2018-10-12T07:17:29.641Z,15.57
2018-10-12T07:18:29.633Z,15.51
2018-10-12T07:19:29.629Z,15.56
2018-10-12T07:20:29.663Z,15.64
2018-10-12T07:21:29.585Z,15.60
2018-10-12T07:22:29.581Z,15.69
2018-10-12T07:23:29.563Z,15.71
2018-10-12T07:24:29.568Z,15.54
2018-10-12T07:25:29.538Z,15.75
2018-10-12T07:26:29.551Z,15.80
2018-10-12T07:27:29.521Z,15.78
2018-10-12T07:28:29.504Z,15.78
2018-10-12T07:29:29.507Z,15.82
2018-10-12T07:30:29.479Z,15.76
2018-10-12T07:31:29.527Z,15.93
2018-10-12T07:32:29.456Z,16.05
2018-10-12T07:33:29.455Z,16.15
2018-10-12T07:34:29.449Z,16.17
2018-10-12T07:35:29.426Z,16.21
2018-10-12T07:36:29.452Z,16.30
2018-10-12T07:37:29.431Z,16.20
2018-10-12T07:38:29.387Z,16.23
2018-10-12T07:39:29.368Z,16.27
2018-10-12T07:40:29.377Z,16.33
2018-10-12T07:41:29.386Z,16.27
2018-10-12T07:42:29.379Z,16.33
2018-10-12T07:43:29.342Z,16.34
2018-10-12T07:44:29.320Z,16.34
2018-10-12T07:45:29.304Z,16.39
2018-10-12T07:46:29.330Z,16.43
2018-10-12T07:47:29.350Z,16.45
2018-10-12T07:48:29.268Z,16.49
2018-10-12T07:49:29.263Z,16.42
2018-10-12T07:50:29.259Z,16.56
2018-10-12T07:51:29.251Z,16.50
2018-10-12T07:52:29.253Z,16.50
2018-10-12T07:53:29.229Z,16.60
2018-10-12T07:54:29.209Z,16.60
2018-10-12T07:55:29.196Z,16.52
2018-10-12T07:56:29.222Z,16.60
2018-10-12T07:57:29.166Z,16.73
2018-10-12T07:58:29.227Z,16.78
2018-10-12T07:59:29.152Z,16.71
2018-10-12T08:00:29.188Z,16.71
2018-10-12T08:01:29.176Z,16.79
2018-10-12T08:02:29.121Z,16.86
2018-10-12T08:03:29.100Z,16.82
2018-10-12T08:04:29.094Z,16.96
2018-10-12T08:05:29.089Z,16.94
2018-10-12T08:06:29.073Z,16.98
2018-10-12T08:07:29.090Z,17.03
2018-10-12T08:08:29.046Z,17.11
2018-10-12T08:09:29.038Z,17.16
2018-10-12T08:10:29.028Z,17.16
2018-10-12T08:11:29.053Z,17.21
2018-10-12T08:12:29.015Z,17.23
2018-10-12T08:13:29.009Z,17.21
2018-10-12T08:14:28.988Z,17.28
2018-10-12T08:15:28.965Z,17.33
2018-10-12T08:16:29.043Z,17.31
2018-10-12T08:17:28.958Z,17.36
2018-10-12T08:18:28.958Z,17.52
2018-10-12T08:19:28.925Z,17.49
2018-10-12T08:20:29.024Z,17.52
2018-10-12T08:21:28.902Z,17.34
2018-10-12T08:22:28.906Z,17.40
2018-10-12T08:23:28.889Z,17.63
2018-10-12T08:24:28.885Z,17.52
2018-10-12T08:25:28.868Z,17.55
2018-10-12T08:26:28.862Z,17.62
2018-10-12T08:27:28.878Z,17.66
2018-10-12T08:28:28.877Z,17.72
2018-10-12T08:29:28.818Z,17.70
2018-10-12T08:30:28.825Z,17.71
2018-10-12T08:31:28.863Z,17.78
2018-10-12T08:32:28.794Z,17.82
2018-10-12T08:33:28.791Z,17.93
2018-10-12T08:34:28.785Z,18.02
2018-10-12T08:35:28.752Z,18.05
2018-10-12T08:36:28.811Z,18.14
2018-10-12T08:37:28.774Z,18.15
2018-10-12T08:38:28.789Z,18.25
2018-10-12T08:39:28.713Z,18.27
2018-10-12T08:40:28.716Z,18.30
2018-10-12T08:41:28.701Z,18.23
2018-10-12T08:42:28.694Z,18.35
2018-10-12T08:43:28.694Z,18.29
2018-10-12T08:44:28.708Z,18.39
2018-10-12T08:45:28.651Z,18.47
2018-10-12T08:46:28.639Z,18.52
2018-10-12T08:47:28.630Z,18.57
2018-10-12T08:48:28.627Z,18.51
2018-10-12T08:49:28.676Z,18.67
2018-10-12T08:50:28.603Z,18.69
2018-10-12T08:51:28.604Z,18.67
2018-10-12T08:52:28.591Z,18.65
2018-10-12T08:53:28.586Z,18.76
2018-10-12T08:54:28.566Z,18.80
2018-10-12T08:55:28.603Z,18.88
2018-10-12T08:56:28.546Z,18.90
2018-10-12T08:57:28.527Z,19.04
2018-10-12T08:58:28.541Z,19.11
2018-10-12T08:59:28.549Z,19.07
2018-10-12T09:00:28.504Z,19.21
2018-10-12T09:01:28.575Z,19.14
2018-10-12T09:02:28.494Z,19.19
2018-10-12T09:03:28.482Z,19.16
2018-10-12T09:04:28.470Z,19.23
2018-10-12T09:05:28.449Z,19.28
2018-10-12T09:06:28.451Z,19.32
2018-10-12T09:07:28.470Z,19.40
2018-10-12T09:08:28.425Z,19.46
2018-10-12T09:09:28.410Z,19.46
2018-10-12T09:10:28.416Z,19.51
2018-10-12T09:11:28.401Z,19.61
2018-10-12T09:12:28.444Z,19.50
2018-10-12T09:13:28.373Z,19.68
2018-10-12T09:14:28.378Z,19.56
2018-10-12T09:15:28.367Z,19.66
2018-10-12T09:16:28.415Z,19.62
2018-10-12T09:17:28.335Z,19.69
2018-10-12T09:18:28.354Z,19.74
2018-10-12T09:19:28.334Z,19.78
2018-10-12T09:20:28.531Z,19.86
2018-10-12T09:21:28.300Z,19.83
2018-10-12T09:22:28.294Z,19.96
2018-10-12T09:23:28.293Z,19.98
2018-10-12T09:24:28.309Z,20.16
2018-10-12T09:25:28.268Z,20.18
2018-10-12T09:26:28.254Z,20.13
2018-10-12T09:27:28.242Z,20.17
2018-10-12T09:28:28.244Z,20.31
2018-10-12T09:29:28.228Z,20.28
2018-10-12T09:30:28.397Z,20.16
2018-10-12T09:31:28.220Z,20.16
2018-10-12T09:32:28.195Z,20.20
2018-10-12T09:33:28.202Z,20.23
2018-10-12T09:34:28.216Z,20.31
2018-10-12T09:35:28.169Z,20.35
2018-10-12T09:36:28.217Z,20.38
2018-10-12T09:37:28.182Z,20.41
2018-10-12T09:38:28.150Z,20.43
2018-10-12T09:39:28.133Z,20.47
2018-10-12T09:40:28.130Z,20.41
2018-10-12T09:41:28.112Z,20.41
2018-10-12T09:42:28.104Z,20.47
2018-10-12T09:43:28.125Z,20.43
2018-10-12T09:44:28.124Z,20.57
2018-10-12T09:45:28.112Z,20.48
2018-10-12T09:46:28.067Z,20.57
2018-10-12T09:47:28.070Z,20.59
2018-10-12T09:48:28.049Z,20.57
2018-10-12T09:49:28.045Z,20.57
2018-10-12T09:50:28.190Z,20.59
2018-10-12T09:51:28.033Z,20.72
2018-10-12T09:52:28.022Z,20.69
2018-10-12T09:53:28.032Z,20.77
2018-10-12T09:54:27.996Z,20.80
2018-10-12T09:55:28.027Z,20.88
2018-10-12T09:56:27.999Z,20.92
2018-10-12T09:57:27.979Z,20.89
2018-10-12T09:58:27.967Z,20.97
2018-10-12T09:59:27.972Z,20.97
2018-10-12T10:00:27.954Z,20.98
2018-10-12T10:01:27.956Z,20.98
2018-10-12T10:02:27.990Z,20.94
2018-10-12T10:03:27.928Z,20.97
2018-10-12T10:04:27.915Z,21.01
2018-10-12T10:05:27.917Z,20.97
2018-10-12T10:06:27.905Z,21.03
2018-10-12T10:07:27.956Z,21.04
2018-10-12T10:08:28.020Z,21.04
2018-10-12T10:09:27.874Z,21.04
2018-10-12T10:10:27.861Z,20.98
2018-10-12T10:11:27.864Z,21.01
2018-10-12T10:12:27.854Z,20.95
2018-10-12T10:13:27.844Z,20.99
2018-10-12T10:14:27.842Z,20.95
2018-10-12T10:15:27.894Z,21.01
2018-10-12T10:16:27.818Z,20.94
2018-10-12T10:17:27.807Z,20.99
2018-10-12T10:18:27.790Z,20.95
2018-10-12T10:19:27.875Z,20.97
2018-10-12T10:20:27.854Z,20.95
2018-10-12T10:21:27.775Z,20.95
2018-10-12T10:22:27.832Z,21.01
2018-10-12T10:23:27.758Z,20.99
2018-10-12T10:24:27.753Z,20.97
2018-10-12T10:25:27.775Z,21.01
2018-10-12T10:26:27.783Z,21.01
2018-10-12T10:27:27.722Z,21.07
2018-10-12T10:28:27.730Z,21.14
2018-10-12T10:29:27.700Z,21.16
2018-10-12T10:30:27.719Z,21.24
2018-10-12T10:31:27.690Z,21.28
2018-10-12T10:32:30.417Z,21.40
2018-10-12T10:33:27.674Z,21.42
2018-10-12T10:34:27.829Z,21.43
2018-10-12T10:35:27.657Z,21.50
2018-10-12T10:36:27.642Z,21.44
2018-10-12T10:37:27.699Z,21.49
2018-10-12T10:38:27.622Z,21.44
2018-10-12T10:39:27.621Z,21.54
2018-10-12T10:40:27.747Z,21.52
2018-10-12T10:41:27.620Z,21.53
2018-10-12T10:42:27.590Z,21.64
2018-10-12T10:43:27.633Z,21.65
2018-10-12T10:44:27.581Z,21.64
2018-10-12T10:45:27.577Z,21.64
2018-10-12T10:46:27.699Z,21.68
2018-10-12T10:47:27.624Z,21.61
2018-10-12T10:48:27.553Z,21.61
2018-10-12T10:49:27.546Z,21.59
2018-10-12T10:50:27.527Z,21.61
2018-10-12T10:51:27.522Z,21.72
2018-10-12T10:52:27.517Z,21.69
2018-10-12T10:53:27.623Z,21.67
2018-10-12T10:54:27.501Z,21.71
2018-10-12T10:55:27.496Z,21.79
2018-10-12T10:56:27.493Z,21.86
2018-10-12T10:57:27.479Z,21.84
2018-10-12T10:58:27.474Z,21.71
2018-10-12T10:59:27.479Z,21.74
2018-10-12T11:00:27.452Z,21.72
2018-10-12T11:01:27.443Z,21.64
2018-10-12T11:02:27.444Z,21.62
2018-10-12T11:03:27.438Z,21.77
2018-10-12T11:04:27.461Z,21.82
2018-10-12T11:05:27.423Z,21.83
2018-10-12T11:06:27.468Z,21.90
2018-10-12T11:07:27.394Z,21.92
2018-10-12T11:08:27.394Z,21.92
2018-10-12T11:09:27.393Z,22.00
2018-10-12T11:10:27.709Z,21.94
2018-10-12T11:11:27.375Z,22.00
2018-10-12T11:12:27.402Z,21.94
2018-10-12T11:13:27.348Z,21.92
2018-10-12T11:14:27.350Z,21.94
2018-10-12T11:15:27.408Z,21.94
2018-10-12T11:16:27.348Z,22.02
2018-10-12T11:17:27.326Z,22.06
2018-10-12T11:18:27.310Z,22.18
2018-10-12T11:19:27.326Z,22.18
2018-10-12T11:20:27.303Z,22.09
2018-10-12T11:21:27.306Z,22.12
2018-10-12T11:22:27.283Z,22.17
2018-10-12T11:23:27.273Z,22.14
2018-10-12T11:24:27.325Z,22.18
2018-10-12T11:25:27.259Z,22.35
2018-10-12T11:26:27.321Z,22.33
2018-10-12T11:27:27.239Z,22.40
2018-10-12T11:28:27.243Z,22.40
2018-10-12T11:29:27.224Z,22.39
2018-10-12T11:30:27.223Z,22.55
2018-10-12T11:31:27.249Z,22.49
2018-10-12T11:32:27.214Z,22.57
2018-10-12T11:33:27.237Z,22.60
2018-10-12T11:34:27.187Z,22.52
2018-10-12T11:35:27.184Z,22.55
2018-10-12T11:36:27.175Z,22.49
2018-10-12T11:37:27.181Z,22.52
2018-10-12T11:38:27.242Z,22.73
2018-10-12T11:39:27.161Z,22.67
2018-10-12T11:40:27.155Z,22.60
2018-10-12T11:41:27.140Z,22.64
2018-10-12T11:42:27.137Z,22.67
2018-10-12T11:43:27.194Z,22.60
2018-10-12T11:44:27.122Z,22.68
2018-10-12T11:45:27.150Z,22.64
2018-10-12T11:46:27.111Z,22.62
2018-10-12T11:47:27.105Z,22.67
2018-10-12T11:48:27.104Z,22.67
2018-10-12T11:49:27.099Z,22.75
2018-10-12T11:50:27.082Z,22.70
2018-10-12T11:51:27.073Z,22.73
2018-10-12T11:52:27.066Z,22.80
2018-10-12T11:53:27.061Z,22.76
2018-10-12T11:54:27.084Z,22.83
2018-10-12T11:55:27.037Z,22.83
2018-10-12T11:56:27.041Z,22.79
2018-10-12T11:57:27.020Z,22.79
2018-10-12T11:58:27.021Z,22.82
2018-10-12T11:59:27.047Z,22.80
2018-10-12T12:00:26.999Z,22.88
2018-10-12T12:01:27.005Z,22.82
2018-10-12T12:02:26.991Z,22.82
2018-10-12T12:03:26.996Z,22.83
2018-10-12T12:04:27.012Z,22.80
2018-10-12T12:05:26.965Z,22.85
2018-10-12T12:06:26.961Z,22.79
2018-10-12T12:07:26.963Z,22.82
2018-10-12T12:08:26.939Z,22.88
2018-10-12T12:09:26.981Z,22.91
2018-10-12T12:10:26.941Z,23.02
2018-10-12T12:11:26.931Z,23.09
2018-10-12T12:12:26.966Z,23.17
2018-10-12T12:13:26.966Z,23.13
2018-10-12T12:14:26.916Z,23.19
2018-10-12T12:15:26.901Z,23.19
2018-10-12T12:16:26.888Z,23.10
2018-10-12T12:17:26.894Z,23.07
2018-10-12T12:18:26.889Z,23.27
2018-10-12T12:19:26.909Z,23.31
2018-10-12T12:20:26.861Z,23.35
2018-10-12T12:21:26.855Z,23.31
2018-10-12T12:22:26.882Z,23.42
2018-10-12T12:23:26.851Z,23.40
2018-10-12T12:24:26.849Z,23.53
2018-10-12T12:25:26.838Z,23.66
2018-10-12T12:26:26.827Z,23.76
2018-10-12T12:27:26.855Z,23.91
2018-10-12T12:28:26.813Z,24.00
2018-10-12T12:29:26.812Z,24.03
2018-10-12T12:30:26.831Z,24.06
2018-10-12T12:31:26.799Z,24.06
2018-10-12T12:32:26.816Z,24.08
2018-10-12T12:33:26.788Z,24.00
2018-10-12T12:34:26.779Z,24.15
2018-10-12T12:35:27.069Z,24.10
2018-10-12T12:36:26.799Z,24.13
2018-10-12T12:37:26.756Z,24.13
2018-10-12T12:38:26.766Z,24.09
2018-10-12T12:39:26.750Z,24.13
2018-10-12T12:40:26.743Z,24.22
2018-10-12T12:41:26.732Z,24.16
2018-10-12T12:42:26.728Z,24.22
2018-10-12T12:43:26.741Z,24.27
2018-10-12T12:44:26.726Z,24.20
2018-10-12T12:45:26.707Z,24.21
2018-10-12T12:46:26.704Z,24.15
2018-10-12T12:47:26.723Z,24.15
2018-10-12T12:48:27.099Z,24.06
2018-10-12T12:49:26.894Z,24.12
2018-10-12T12:50:26.684Z,24.12
2018-10-12T12:51:26.672Z,24.18
2018-10-12T12:52:26.677Z,24.21